White, Georgia
Current Conditions -  °F | °C
As of 9:53 AM on Monday 22 Dec 2014 (Local Time) from KVPC Reporting Station
Overcast Overcast  
Wind Chill: 41°   Ceiling: 800
Heat Index: 45°   Visibility: 7mi
Dew Point: 41°   Wind: 7mph
Humidity: 86%   Direction: 100°E
Pressure: 30.03"   Gusts: NA
Location:  34.28°N, 84.75°W
Report Text: KVPC 221453Z AUTO 10006KT 7SM OVC008 07/05 A3003 RMK AO2 SLP165 T00720050 56005
Loading
Personal Weather Stations






























Interactive Weather Map New forecast layout! Learn more

10-Day Weather Forecast

Advertisements
Track Severe Weather on mobile